Time;durP1;ratioP1;P1;durP2;ratioP2;P2;SDS_P1;SDS_P2;PMS_P1;PMS_P2;Temp;Humidity;BMP_temperature;BMP_pressure;BME280_temperature;BME280_humidity;BME280_pressure;Samples;Min_cycle;Max_cycle;Signal;HPM_P1;HPM_P2
2022/10/07 00:01:10;;;;;;;10.67;8.23;;;9.20;99.90;;;-141.84;80.83;18659.63;5093460;28;20240;-77
2022/10/07 00:03:40;;;;;;;12.27;9.60;;;9.20;99.90;;;-141.84;80.34;18643.38;5093217;28;20276;-77
2022/10/07 00:06:13;;;;;;;10.30;9.10;;;9.20;99.90;;;-141.84;79.51;18663.69;5093347;28;20228;-75
2022/10/07 00:08:45;;;;;;;10.97;8.40;;;9.30;99.90;;;-141.84;79.31;18673.84;5093732;28;20224;-77
2022/10/07 00:11:16;;;;;;;11.53;8.70;;;9.30;99.90;;;-141.84;79.35;18633.22;5093417;28;20247;-77
2022/10/07 00:13:46;;;;;;;10.20;8.03;;;9.30;99.90;;;-141.84;79.19;18645.41;5094410;28;20176;-76
2022/10/07 00:16:19;;;;;;;8.40;7.00;;;9.30;99.90;;;-141.84;79.19;18651.50;5093675;28;20208;-77
2022/10/07 00:18:49;;;;;;;11.67;7.23;;;9.30;99.90;;;-141.84;79.26;18627.13;5093366;28;20220;-76
2022/10/07 00:21:19;;;;;;;9.20;7.20;;;9.30;99.90;;;-141.84;79.13;18647.44;5093160;28;20711;-77
2022/10/07 00:23:48;;;;;;;9.60;6.97;;;9.30;99.90;;;-141.84;78.81;18645.41;5093612;28;20303;-79
2022/10/07 00:26:20;;;;;;;9.80;7.20;;;9.30;99.90;;;-141.84;79.04;18639.31;5092786;28;20319;-77
2022/10/07 00:28:49;;;;;;;9.50;7.33;;;9.30;99.90;;;-141.84;79.38;18604.78;5093891;28;20459;-76
2022/10/07 00:31:20;;;;;;;8.60;7.00;;;9.30;99.90;;;-141.84;79.50;18631.19;5093638;28;20795;-77
2022/10/07 00:33:51;;;;;;;9.60;6.87;;;9.20;99.90;;;-141.84;79.96;18614.94;5093444;28;20224;-77
2022/10/07 00:36:23;;;;;;;12.73;7.20;;;9.20;99.90;;;-141.84;79.44;18647.44;5093099;28;20309;-75
2022/10/07 00:38:54;;;;;;;10.23;7.50;;;9.20;99.90;;;-141.84;79.51;18629.16;5093094;28;20228;-77
2022/10/07 00:41:26;;;;;;;12.17;7.30;;;9.30;99.90;;;-141.84;79.84;18600.72;5092956;28;20340;-77
2022/10/07 00:43:56;;;;;;;11.00;7.27;;;9.30;99.90;;;-141.84;79.92;18590.56;5092956;28;20176;-75
2022/10/07 00:46:31;;;;;;;8.83;7.27;;;9.20;99.90;;;-141.84;79.60;18602.75;5093278;28;20200;-77
2022/10/07 00:49:06;;;;;;;10.13;7.13;;;9.20;99.90;;;-141.84;80.30;18598.69;5092767;28;20231;-77
2022/10/07 00:51:35;;;;;;;9.87;7.63;;;9.10;99.90;;;-141.84;80.42;18602.75;5092347;28;20643;-77
2022/10/07 00:54:09;;;;;;;10.37;7.37;;;9.10;99.90;;;-141.84;80.46;18594.63;5092540;28;20583;-76
2022/10/07 00:56:39;;;;;;;8.83;7.97;;;9.10;99.90;;;-141.84;80.19;18586.50;5092434;28;20227;-78
2022/10/07 00:59:08;;;;;;;12.83;8.10;;;9.10;99.90;;;-141.84;80.64;18576.31;5092291;28;20237;-78
2022/10/07 01:01:37;;;;;;;10.53;7.93;;;9.00;99.90;;;-141.84;80.76;18558.03;5092248;28;20594;-76
2022/10/07 01:04:08;;;;;;;12.17;8.50;;;9.00;99.90;;;-141.84;80.37;18545.84;5092230;28;20228;-75
2022/10/07 01:06:38;;;;;;;11.00;9.80;;;9.00;99.90;;;-141.84;80.25;18586.50;5091994;28;20582;-75
2022/10/07 01:09:08;;;;;;;14.57;11.17;;;9.10;99.90;;;-141.84;80.13;18590.56;5092282;28;20730;-75
2022/10/07 01:11:50;;;;;;;13.10;11.43;;;9.00;99.90;;;-141.84;80.55;18560.06;5092440;28;20219;-75
2022/10/07 01:14:37;;;;;;;12.73;10.20;;;9.00;99.90;;;-141.84;80.67;18558.03;5092628;28;20227;-76
2022/10/07 01:17:14;;;;;;;11.40;9.63;;;8.90;99.90;;;-141.84;81.15;18515.38;5092465;28;20192;-77
2022/10/07 01:20:17;;;;;;;10.40;8.97;;;8.80;99.90;;;-141.84;80.70;18558.03;5092800;28;20192;-76
2022/10/07 01:23:04;;;;;;;11.07;7.43;;;8.90;99.90;;;-141.84;80.51;18556.00;5092361;28;20231;-77
2022/10/07 01:25:53;;;;;;;10.70;7.40;;;8.80;99.90;;;-141.84;80.38;18549.91;5091295;28;20215;-76
2022/10/07 01:28:30;;;;;;;10.67;7.17;;;8.80;99.90;;;-141.84;80.78;18525.53;5092314;28;20227;-76
2022/10/07 01:31:06;;;;;;;10.80;7.60;;;8.80;99.90;;;-141.84;80.74;18513.34;5091653;28;20287;-76
2022/10/07 01:33:38;;;;;;;10.77;8.10;;;8.80;99.90;;;-141.84;80.71;18527.56;5091947;28;20227;-75
2022/10/07 01:36:13;;;;;;;9.80;7.43;;;8.70;99.90;;;-141.84;81.50;18491.00;5091730;28;20718;-76
2022/10/07 01:38:51;;;;;;;7.70;6.93;;;8.70;99.90;;;-141.84;82.41;18517.41;5092154;28;20227;-76
2022/10/07 01:41:22;;;;;;;11.33;7.80;;;8.60;99.90;;;-141.84;82.25;18464.59;5091815;28;20259;-79
2022/10/07 01:43:56;;;;;;;10.20;7.43;;;8.60;99.90;;;-141.84;82.71;18515.38;5091732;28;20185;-75
2022/10/07 01:46:27;;;;;;;9.57;7.40;;;8.60;99.90;;;-141.84;83.19;18466.63;5092485;28;20341;-76
2022/10/07 01:48:57;;;;;;;12.37;7.33;;;8.50;99.90;;;-141.84;83.87;18458.50;5092093;28;20227;-77
2022/10/07 01:51:31;;;;;;;10.83;7.73;;;8.50;99.90;;;-141.84;83.96;18486.94;5091841;28;20220;-77
2022/10/07 01:54:15;;;;;;;9.07;7.70;;;8.50;99.90;;;-141.84;84.09;18452.41;5091872;28;20222;-75
2022/10/07 01:57:01;;;;;;;10.20;7.20;;;8.50;99.90;;;-141.84;84.00;18460.53;5091842;28;20216;-78
2022/10/07 02:00:04;;;;;;;9.93;7.47;;;8.50;99.90;;;-141.84;84.44;18456.47;5092008;28;20220;-76
2022/10/07 02:02:53;;;;;;;9.73;7.47;;;8.50;99.90;;;-141.84;83.43;18452.41;5090989;28;20223;-77
2022/10/07 02:05:38;;;;;;;8.07;6.87;;;8.50;99.90;;;-141.84;83.38;18403.63;5092980;28;20249;-76
2022/10/07 02:08:23;;;;;;;12.93;7.53;;;8.40;99.90;;;-141.84;83.36;18425.97;5091658;28;20233;-74
2022/10/07 02:11:10;;;;;;;12.93;7.63;;;8.40;99.90;;;-141.84;83.65;18438.19;5092550;28;20204;-76
2022/10/07 02:13:47;;;;;;;8.83;7.10;;;8.40;99.90;;;-141.84;84.07;18415.81;5095287;28;20187;-76
2022/10/07 02:16:24;;;;;;;11.53;7.43;;;8.40;99.90;;;-141.84;84.46;18442.25;5095818;28;20222;-77
2022/10/07 02:18:54;;;;;;;10.83;7.10;;;8.30;99.90;;;-141.84;84.20;18428.03;5095689;28;20235;-76
2022/10/07 02:21:29;;;;;;;11.77;7.20;;;8.40;99.90;;;-141.84;84.00;18375.19;5095572;28;20234;-75
2022/10/07 02:24:00;;;;;;;9.93;7.33;;;8.30;99.90;;;-141.84;84.06;18446.31;5095174;28;20264;-76
2022/10/07 02:26:32;;;;;;;9.63;7.80;;;8.30;99.90;;;-141.84;84.19;18430.06;5095824;28;20223;-77
2022/10/07 02:29:07;;;;;;;8.53;6.70;;;8.50;99.90;;;-141.84;83.46;18367.06;5095565;28;20639;-76
2022/10/07 02:31:40;;;;;;;8.30;7.40;;;8.40;99.90;;;-141.84;83.29;18391.44;5095915;28;20282;-76
2022/10/07 02:34:13;;;;;;;9.87;7.43;;;8.40;99.90;;;-141.84;83.63;18389.41;5095442;28;20631;-77
2022/10/07 02:36:54;;;;;;;9.67;6.93;;;8.40;99.90;;;-141.84;83.54;18379.25;5095018;28;20223;-75
2022/10/07 02:39:22;;;;;;;9.20;6.97;;;8.30;99.90;;;-141.84;83.69;18387.38;5094776;28;20231;-77
2022/10/07 02:42:01;;;;;;;11.73;7.73;;;8.30;99.90;;;-141.84;83.17;18421.91;5094929;28;20596;-76
2022/10/07 02:44:38;;;;;;;8.70;7.17;;;8.30;99.90;;;-141.84;82.64;18373.16;5095336;28;20305;-77
2022/10/07 02:47:16;;;;;;;8.23;6.67;;;8.30;99.90;;;-141.84;83.16;18391.44;5095114;28;20188;-77
2022/10/07 02:49:52;;;;;;;9.60;7.03;;;8.50;99.90;;;-141.84;83.60;18375.19;5096629;28;20195;-76
2022/10/07 02:52:22;;;;;;;10.23;6.90;;;8.20;99.90;;;-141.84;83.78;18393.47;5097291;28;20210;-77
2022/10/07 02:54:58;;;;;;;10.63;7.37;;;8.20;99.90;;;-141.84;84.03;18346.75;5116422;28;20228;-77
2022/10/07 02:57:31;;;;;;;12.57;7.40;;;8.20;99.90;;;-141.84;84.22;18350.81;5114936;28;20223;-76
2022/10/07 03:00:01;;;;;;;8.20;7.20;;;8.10;99.90;;;-141.84;83.97;18354.88;5107010;28;20211;-76
2022/10/07 03:02:44;;;;;;;9.80;7.73;;;8.10;99.90;;;-141.84;84.24;18367.06;5094782;28;20828;-77
2022/10/07 03:05:18;;;;;;;10.20;7.17;;;8.20;99.90;;;-141.84;84.65;18375.19;5094776;28;20231;-78
2022/10/07 03:07:48;;;;;;;8.47;7.03;;;8.10;99.90;;;-141.84;84.72;18336.59;5093952;28;20188;-77
2022/10/07 03:10:18;;;;;;;9.10;7.07;;;8.00;99.90;;;-141.84;84.90;18363.00;5093667;28;20274;-76
2022/10/07 03:12:46;;;;;;;9.27;7.40;;;8.00;99.90;;;-141.84;84.89;18367.06;5093113;28;20224;-77
2022/10/07 03:15:14;;;;;;;8.43;7.13;;;8.10;99.90;;;-141.84;84.37;18369.09;5093539;28;20224;-76
2022/10/07 03:17:43;;;;;;;11.43;7.60;;;8.10;99.90;;;-141.84;84.11;18385.34;5093156;28;20220;-78
2022/10/07 03:20:13;;;;;;;11.00;7.83;;;8.10;99.90;;;-141.84;84.03;18332.53;5093240;28;20269;-74
2022/10/07 03:22:43;;;;;;;9.93;7.50;;;8.10;99.90;;;-141.84;84.23;18316.28;5092212;28;20687;-76
2022/10/07 03:25:13;;;;;;;11.40;8.20;;;8.10;99.90;;;-141.84;84.46;18326.44;5092923;28;20250;-77
2022/10/07 03:27:42;;;;;;;8.87;7.47;;;8.00;99.90;;;-141.84;83.90;18358.94;5093018;28;20232;-75
2022/10/07 03:30:12;;;;;;;10.63;7.43;;;8.00;99.90;;;-141.84;83.22;18318.31;5093248;28;20223;-77
2022/10/07 03:32:43;;;;;;;10.57;7.53;;;8.10;99.90;;;-141.84;83.50;18318.31;5113550;27;20218;-77
2022/10/07 03:35:11;;;;;;;9.13;7.50;;;8.10;99.90;;;-141.84;83.70;18320.34;5113770;28;20229;-75
2022/10/07 03:37:39;;;;;;;11.00;7.27;;;8.00;99.90;;;-141.84;83.63;18342.69;5113976;28;20203;-76
2022/10/07 03:40:08;;;;;;;8.63;7.43;;;8.00;99.90;;;-141.84;83.96;18330.50;5112523;28;20227;-75
2022/10/07 03:42:36;;;;;;;9.77;7.70;;;8.00;99.90;;;-141.84;83.73;18338.63;5112892;28;20236;-75
2022/10/07 03:45:05;;;;;;;10.37;7.97;;;8.00;99.90;;;-141.84;83.15;18300.03;5113441;28;20253;-77
2022/10/07 03:47:34;;;;;;;12.03;7.77;;;7.90;99.90;;;-141.84;82.36;18318.31;5113227;28;20254;-75
2022/10/07 03:50:04;;;;;;;10.80;7.53;;;8.00;99.90;;;-141.84;82.79;18342.69;5113228;28;20344;-76
2022/10/07 03:52:32;;;;;;;9.47;7.50;;;7.90;99.90;;;-141.84;83.55;18340.66;5113724;28;20187;-76
2022/10/07 03:55:00;;;;;;;10.93;7.80;;;7.80;99.90;;;-141.84;84.01;18330.50;5113154;28;20226;-75
2022/10/07 04:00:15;;;;;;;10.97;8.47;;;7.80;99.90;;;-141.84;84.85;18304.09;5113005;28;20227;-78
2022/10/07 04:02:43;;;;;;;11.20;8.63;;;7.90;99.90;;;-141.84;84.81;18324.41;5112436;27;20687;-75
2022/10/07 04:05:14;;;;;;;10.33;7.93;;;7.80;99.90;;;-141.84;84.85;18304.09;5113117;27;20223;-74
2022/10/07 04:07:43;;;;;;;12.27;8.53;;;7.80;99.90;;;-141.84;84.70;18322.38;5113775;28;20176;-74
2022/10/07 04:10:14;;;;;;;11.10;8.80;;;7.80;99.90;;;-141.84;83.74;18326.44;5112639;28;20678;-76
2022/10/07 04:12:42;;;;;;;12.23;8.90;;;7.90;99.90;;;-141.84;83.09;18314.25;5112631;28;20238;-75
2022/10/07 04:15:13;;;;;;;12.87;8.50;;;7.90;99.90;;;-141.84;83.58;18300.03;5112485;28;20226;-75
2022/10/07 04:17:42;;;;;;;13.83;8.53;;;7.90;99.90;;;-141.84;83.63;18310.19;5112668;28;20223;-76
2022/10/07 04:20:13;;;;;;;13.27;8.90;;;7.90;99.90;;;-141.84;84.12;18332.53;5112705;27;20715;-77
2022/10/07 04:22:42;;;;;;;12.80;9.07;;;7.90;99.90;;;-141.84;84.45;18293.94;5113147;28;20204;-75
2022/10/07 04:28:00;;;;;;;11.27;8.87;;;7.80;99.90;;;-141.84;84.87;18273.63;5112139;27;20239;-76
2022/10/07 04:30:33;;;;;;;11.93;9.63;;;7.80;99.90;;;-141.84;83.90;18312.22;5112315;28;20735;-75
2022/10/07 04:33:02;;;;;;;12.37;9.83;;;7.90;99.90;;;-141.84;84.21;18277.69;5112589;28;20255;-77
2022/10/07 04:35:35;;;;;;;13.47;10.40;;;7.80;99.90;;;-141.84;84.41;18287.84;5111886;28;20748;-77
2022/10/07 04:38:04;;;;;;;11.77;9.93;;;7.80;99.90;;;-141.84;84.63;18277.69;5112235;28;20662;-76
2022/10/07 04:40:32;;;;;;;14.20;12.70;;;7.70;99.90;;;-141.84;84.68;18249.25;5112721;28;20260;-74
2022/10/07 04:43:19;;;;;;;16.97;14.23;;;7.70;99.90;;;-141.84;84.35;18271.59;5112479;28;20234;-77
2022/10/07 04:45:48;;;;;;;16.87;15.07;;;7.70;99.90;;;-141.84;84.17;18261.44;5112145;28;20227;-74
2022/10/07 04:48:18;;;;;;;20.17;15.60;;;7.60;99.90;;;-141.84;84.19;18251.28;5112004;28;20228;-75
2022/10/07 04:50:50;;;;;;;18.27;14.80;;;7.60;99.90;;;-141.84;84.69;18253.31;5111918;28;20718;-75
2022/10/07 04:53:19;;;;;;;16.90;14.87;;;7.60;99.90;;;-141.84;84.66;18245.19;5111985;28;20219;-77
2022/10/07 04:55:51;;;;;;;19.43;14.47;;;7.60;99.90;;;-141.84;83.77;18249.25;5111846;28;20666;-71
2022/10/07 04:58:20;;;;;;;17.67;12.67;;;7.60;99.90;;;-141.84;83.59;18237.06;5111950;28;20184;-76
2022/10/07 05:00:50;;;;;;;16.13;10.77;;;7.60;99.90;;;-141.84;82.97;18271.59;5111499;28;20223;-75
2022/10/07 05:03:21;;;;;;;16.80;10.73;;;7.60;99.90;;;-141.84;83.63;18249.25;5111693;28;20220;-75
2022/10/07 05:05:53;;;;;;;13.37;10.47;;;7.50;99.90;;;-141.84;84.42;18275.66;5111834;28;20242;-74
2022/10/07 05:08:24;;;;;;;15.70;11.57;;;7.60;99.90;;;-141.84;84.57;18241.13;5112128;28;20230;-74
2022/10/07 05:10:55;;;;;;;13.60;11.70;;;7.50;99.90;;;-141.84;84.75;18232.97;5111436;28;20609;-76
2022/10/07 05:13:25;;;;;;;15.63;10.83;;;7.50;99.90;;;-141.84;85.09;18202.50;5111959;28;20190;-76
2022/10/07 05:15:56;;;;;;;15.53;10.00;;;7.50;99.90;;;-141.84;85.26;18230.94;5111272;28;20223;-75
2022/10/07 05:18:26;;;;;;;12.13;10.40;;;7.50;99.90;;;-141.84;85.23;18241.13;5111209;28;20251;-75
2022/10/07 05:20:56;;;;;;;13.67;9.43;;;7.50;99.90;;;-141.84;84.92;18253.31;5111427;28;20231;-74
2022/10/07 05:23:27;;;;;;;13.33;9.73;;;7.50;99.90;;;-141.84;84.85;18249.25;5110635;28;20607;-63
2022/10/07 05:26:01;;;;;;;11.40;9.17;;;7.50;99.90;;;-141.84;84.53;18230.94;5110936;28;20218;-62
2022/10/07 05:28:29;;;;;;;12.47;9.50;;;7.50;99.90;;;-141.84;84.25;18237.06;5111898;28;20203;-62
2022/10/07 05:31:06;;;;;;;12.50;8.57;;;7.60;99.90;;;-141.84;84.19;18224.84;5104962;28;20224;-61
2022/10/07 05:33:35;;;;;;;10.70;8.40;;;7.50;99.90;;;-141.84;84.81;18220.78;5090701;28;20280;-64
2022/10/07 05:36:08;;;;;;;10.87;8.33;;;7.50;99.90;;;-141.84;85.19;18208.59;5089815;28;20224;-62
2022/10/07 05:38:36;;;;;;;13.80;9.30;;;7.50;99.90;;;-141.84;84.88;18228.91;5090564;28;20242;-63
2022/10/07 05:41:07;;;;;;;11.07;8.30;;;7.50;99.90;;;-141.84;85.26;18232.97;5090735;28;20208;-62
2022/10/07 05:43:40;;;;;;;11.77;8.47;;;7.50;99.90;;;-141.84;85.52;18220.78;5090951;28;20717;-62
2022/10/07 05:46:12;;;;;;;12.07;8.20;;;7.50;99.90;;;-141.84;85.63;18139.53;5089905;28;20289;-62
2022/10/07 05:48:41;;;;;;;14.07;8.87;;;7.50;99.90;;;-141.84;85.40;18182.19;5090568;28;20223;-62
2022/10/07 05:51:11;;;;;;;17.13;9.33;;;7.50;99.90;;;-141.84;85.33;18208.59;5090535;28;20228;-62
2022/10/07 05:53:41;;;;;;;14.17;8.53;;;7.60;99.90;;;-141.84;85.02;18206.56;5090699;28;20238;-61
2022/10/07 05:56:12;;;;;;;15.03;9.97;;;7.60;99.90;;;-141.84;84.43;18232.97;5090465;28;20398;-62
2022/10/07 05:58:40;;;;;;;10.63;9.00;;;7.70;99.90;;;-141.84;84.11;18224.84;5091143;28;20241;-62
2022/10/07 06:01:15;;;;;;;11.97;9.33;;;7.70;99.90;;;-141.84;83.52;18194.38;5090520;28;20231;-60
2022/10/07 06:03:48;;;;;;;14.73;12.77;;;7.80;99.90;;;-141.84;83.15;18226.88;5090517;28;20224;-61
2022/10/07 06:06:17;;;;;;;20.30;17.97;;;7.90;99.90;;;-141.84;83.07;18261.44;5090797;28;20235;-60
2022/10/07 06:08:46;;;;;;;19.77;16.07;;;7.90;99.90;;;-141.84;82.84;18241.13;5089650;28;20224;-61
2022/10/07 06:14:04;;;;;;;13.57;12.03;;;8.00;99.90;;;-141.84;81.92;18216.72;5090575;28;20237;-61
2022/10/07 06:16:32;;;;;;;13.10;9.60;;;8.10;99.90;;;-141.84;81.67;18251.28;5090720;28;20185;-61
2022/10/07 06:19:01;;;;;;;10.70;7.27;;;8.20;99.90;;;-141.84;81.01;18285.81;5090246;28;20231;-61
2022/10/07 06:21:30;;;;;;;9.57;6.67;;;8.20;99.90;;;-141.84;79.84;18295.97;5090217;28;20224;-62
2022/10/07 06:23:58;;;;;;;8.97;6.93;;;8.40;99.90;;;-141.84;78.49;18330.50;5089832;28;20231;-63
2022/10/07 06:26:26;;;;;;;7.07;6.17;;;8.40;99.90;;;-141.84;78.47;18289.88;5089955;28;20674;-60
2022/10/07 06:28:54;;;;;;;11.23;6.70;;;8.50;99.90;;;-141.84;77.16;18365.03;5090200;28;20212;-62
2022/10/07 06:31:24;;;;;;;8.63;6.60;;;8.60;99.90;;;-141.84;75.39;18395.50;5090529;28;20204;-62
2022/10/07 06:33:53;;;;;;;8.33;6.47;;;8.70;99.90;;;-141.84;75.96;18379.25;5088787;28;20216;-63
2022/10/07 06:36:22;;;;;;;8.80;6.03;;;8.90;99.90;;;-141.84;75.17;18417.84;5089627;28;20220;-62
2022/10/07 06:38:54;;;;;;;8.10;6.03;;;8.90;99.90;;;-141.84;75.58;18405.66;5090355;28;20224;-61
2022/10/07 06:41:23;;;;;;;7.97;6.10;;;9.00;99.90;;;-141.84;76.12;18401.59;5089731;28;20220;-62
2022/10/07 06:43:56;;;;;;;8.50;6.37;;;9.10;99.90;;;-141.84;76.37;18407.69;5089772;28;20231;-63
2022/10/07 06:46:24;;;;;;;7.57;5.60;;;9.20;99.90;;;-141.84;75.91;18411.75;5090725;28;20188;-62
2022/10/07 06:48:52;;;;;;;9.60;6.03;;;9.30;99.90;;;-141.84;74.68;18456.47;5089207;28;20234;-62
2022/10/07 06:51:22;;;;;;;7.97;5.33;;;9.40;99.90;;;-141.84;74.02;18466.63;5089509;28;20220;-61
2022/10/07 06:53:56;;;;;;;6.80;5.70;;;9.50;99.90;;;-141.84;73.24;18529.59;5090146;28;20215;-62
2022/10/07 06:56:25;;;;;;;8.97;5.80;;;9.60;99.90;;;-141.84;72.94;18529.59;5090068;28;20242;-62
2022/10/07 06:58:53;;;;;;;8.00;6.13;;;9.70;99.90;;;-141.84;72.75;18523.50;5092410;28;20215;-63
2022/10/07 07:01:21;;;;;;;6.00;5.40;;;9.70;99.90;;;-141.84;73.06;18513.34;5093632;28;20571;-62
2022/10/07 07:03:49;;;;;;;8.40;5.97;;;9.80;99.90;;;-141.84;72.56;18539.75;5093728;28;20224;-62
2022/10/07 07:06:17;;;;;;;9.03;5.67;;;9.80;99.90;;;-141.84;72.11;18574.28;5093531;28;20236;-62
2022/10/07 07:08:48;;;;;;;7.43;6.27;;;10.00;99.90;;;-141.84;71.30;18619.00;5093353;28;20273;-62
2022/10/07 07:11:37;;;;;;;8.03;5.50;;;10.00;99.90;;;-141.84;70.99;18608.84;5093647;28;20231;-61
2022/10/07 07:14:06;;;;;;;7.77;5.53;;;10.10;99.90;;;-141.84;70.26;18673.84;5093285;28;20176;-62
2022/10/07 07:16:35;;;;;;;6.70;5.23;;;10.20;99.90;;;-141.84;69.83;18677.91;5093853;28;20195;-62
2022/10/07 07:19:06;;;;;;;9.40;5.30;;;10.20;99.90;;;-141.84;69.94;18673.84;5093103;28;20246;-63
2022/10/07 07:21:34;;;;;;;7.23;5.43;;;10.30;99.90;;;-141.84;69.26;18732.78;5093136;28;20223;-61
2022/10/07 07:24:03;;;;;;;6.80;4.97;;;10.40;99.90;;;-141.84;69.90;18712.47;5093062;28;20224;-62
2022/10/07 07:26:32;;;;;;;6.73;5.17;;;10.50;99.90;;;-141.84;69.91;18710.44;5092770;28;20284;-63
2022/10/07 07:29:03;;;;;;;8.47;5.20;;;10.60;99.90;;;-141.84;69.62;18747.00;5092597;28;20211;-63
2022/10/07 07:31:35;;;;;;;6.27;4.97;;;10.70;99.90;;;-141.84;68.26;18834.38;5093543;28;20195;-64
2022/10/07 07:34:10;;;;;;;7.17;5.70;;;10.90;99.90;;;-141.84;67.06;18927.84;5093115;28;20223;-61
2022/10/07 07:36:42;;;;;;;7.13;5.30;;;11.00;99.90;;;-141.84;67.04;18879.06;5093028;28;20227;-64
2022/10/07 07:39:14;;;;;;;8.33;5.63;;;11.00;99.90;;;-141.84;67.21;18913.59;5093101;28;20246;-66
2022/10/07 07:41:46;;;;;;;7.47;5.40;;;11.00;99.90;;;-141.84;66.53;18942.06;5109424;28;20249;-63
2022/10/07 07:44:17;;;;;;;10.67;6.03;;;11.00;99.90;;;-141.84;66.57;18984.72;5109052;27;20234;-66
2022/10/07 07:46:49;;;;;;;6.83;4.90;;;11.00;99.90;;;-141.84;66.14;19009.09;5113381;28;20192;-65
2022/10/07 07:49:18;;;;;;;10.53;5.67;;;11.20;99.90;;;-141.84;65.75;19025.38;5113429;28;20215;-64
2022/10/07 07:51:46;;;;;;;7.63;5.37;;;11.20;99.90;;;-141.84;65.97;19025.38;5112934;28;20227;-64
2022/10/07 07:54:16;;;;;;;7.30;5.10;;;11.30;99.90;;;-141.84;65.98;19019.28;5112925;28;20873;-65
2022/10/07 07:56:45;;;;;;;11.47;5.83;;;11.40;99.90;;;-141.84;65.69;19094.44;5113037;28;20218;-66
2022/10/07 07:59:13;;;;;;;8.10;5.40;;;11.50;99.90;;;-141.84;65.42;19124.94;5113053;28;20227;-63
2022/10/07 08:01:44;;;;;;;6.17;5.07;;;11.50;99.90;;;-141.84;65.17;19133.06;5113396;28;20472;-63
2022/10/07 08:04:14;;;;;;;7.23;5.23;;;11.60;99.90;;;-141.84;63.91;19259.03;5112637;28;20230;-63
2022/10/07 08:06:42;;;;;;;9.33;5.37;;;11.80;99.90;;;-141.84;63.99;19269.22;5112614;28;20227;-63
2022/10/07 08:09:11;;;;;;;7.50;5.50;;;11.90;99.90;;;-141.84;62.60;19446.00;5111945;28;20219;-63
2022/10/07 08:11:42;;;;;;;7.83;5.33;;;12.00;99.90;;;-141.84;63.16;19366.75;5112778;28;20223;-63
2022/10/07 08:14:12;;;;;;;10.30;5.40;;;12.00;99.90;;;-141.84;63.00;19383.00;5111889;28;20223;-63
2022/10/07 08:16:42;;;;;;;8.53;5.40;;;12.10;99.90;;;-141.84;63.49;19370.81;5112788;28;20570;-64
2022/10/07 08:19:11;;;;;;;8.27;5.47;;;12.20;99.90;;;-141.84;61.83;19462.25;5112285;28;20227;-63
2022/10/07 08:21:39;;;;;;;6.60;4.67;;;12.30;99.90;;;-141.84;62.72;19450.06;5112446;28;20223;-63
2022/10/07 08:24:08;;;;;;;10.17;5.60;;;12.40;99.90;;;-141.84;62.99;19423.66;5112245;28;20231;-64
2022/10/07 08:26:37;;;;;;;8.40;4.87;;;12.40;99.90;;;-141.84;62.82;19448.03;5112007;28;20215;-62
2022/10/07 08:29:05;;;;;;;7.87;5.60;;;12.50;99.90;;;-141.84;62.60;19466.31;5111574;28;20667;-63
2022/10/07 08:31:35;;;;;;;8.57;5.37;;;12.60;99.90;;;-141.84;62.11;19490.72;5101919;28;20208;-63
2022/10/07 08:34:05;;;;;;;6.43;4.90;;;12.70;99.90;;;-141.84;60.84;19639.06;5091595;28;20793;-64
2022/10/07 08:36:34;;;;;;;8.63;4.90;;;12.70;99.90;;;-141.84;61.22;19618.75;5091837;28;20227;-64
2022/10/07 08:39:04;;;;;;;6.33;4.43;;;12.80;99.90;;;-141.84;61.19;19639.06;5091664;28;20628;-65
2022/10/07 08:41:58;;;;;;;8.73;5.00;;;12.90;99.90;;;-141.84;60.75;19667.50;5091699;28;20224;-63
2022/10/07 08:44:31;;;;;;;8.80;4.93;;;13.00;99.90;;;-141.84;60.40;19716.28;5091028;28;20703;-64
2022/10/07 08:47:14;;;;;;;7.57;4.40;;;13.00;99.90;;;-141.84;59.27;19807.75;5090878;27;20378;-62
2022/10/07 08:50:00;;;;;;;5.67;4.47;;;13.20;99.90;;;-141.84;59.42;19866.69;5105518;28;20517;-62
2022/10/07 08:52:46;;;;;;;5.87;4.67;;;13.30;99.90;;;-141.84;59.55;19850.41;5111427;27;20218;-64
2022/10/07 08:55:23;;;;;;;9.40;4.80;;;13.40;99.90;;;-141.84;58.57;19947.97;5110881;28;20211;-63
2022/10/07 08:58:13;;;;;;;5.70;4.15;;;13.50;99.90;;;-141.84;58.07;19988.63;5111430;28;20238;-62
2022/10/07 09:00:50;;;;;;;7.50;4.30;;;13.70;99.90;;;-141.84;58.30;19958.13;5103089;28;20215;-64
2022/10/07 09:03:38;;;;;;;7.83;3.93;;;13.70;99.90;;;-141.84;58.44;19980.50;5094075;28;20222;-61
2022/10/07 09:06:13;;;;;;;5.57;4.32;;;13.80;99.90;;;-141.84;57.03;20061.78;5111511;28;20227;-63
2022/10/07 09:08:46;;;;;;;7.13;4.23;;;13.80;99.90;;;-141.84;56.99;20059.75;5098661;28;20219;-63
2022/10/07 09:11:24;;;;;;;6.35;4.32;;;13.80;99.90;;;-141.84;57.14;20047.56;5091298;28;20226;-61
2022/10/07 09:13:59;;;;;;;9.35;4.22;;;13.80;99.90;;;-141.84;56.78;20078.06;5091150;28;20195;-61
2022/10/07 09:16:35;;;;;;;8.20;4.10;;;13.90;99.90;;;-141.84;56.61;20092.28;5097721;28;20190;-63
2022/10/07 09:19:12;;;;;;;8.52;4.22;;;13.90;99.90;;;-141.84;55.82;20151.22;5110893;28;20222;-63
2022/10/07 09:21:47;;;;;;;8.30;4.03;;;13.90;99.90;;;-141.84;55.80;20151.22;5110211;28;20234;-65
2022/10/07 09:24:21;;;;;;;8.02;4.10;;;14.00;99.90;;;-141.84;55.48;20149.19;5111094;28;20674;-64
2022/10/07 09:26:53;;;;;;;9.20;4.10;;;14.10;99.90;;;-141.84;55.42;20191.88;5110975;28;20253;-63
2022/10/07 09:29:25;;;;;;;6.05;3.80;;;14.20;99.90;;;-141.84;55.52;20240.66;5111050;28;20304;-66
2022/10/07 09:31:54;;;;;;;4.57;3.53;;;14.30;99.90;;;-141.84;55.12;20281.31;5107757;28;20198;-63
2022/10/07 09:34:27;;;;;;;5.32;3.25;;;14.40;99.90;;;-141.84;54.80;20267.09;5097425;28;20206;-63
2022/10/07 09:37:17;;;;;;;5.93;3.97;;;14.60;99.90;;;-141.84;54.15;20326.03;5090484;28;20220;-63
2022/10/07 09:39:48;;;;;;;6.22;3.83;;;14.70;99.90;;;-141.84;54.78;20328.06;5090083;28;20620;-63
2022/10/07 09:42:33;;;;;;;6.70;3.63;;;14.80;99.90;;;-141.84;54.20;20330.09;5090657;28;20703;-63
2022/10/07 09:45:18;;;;;;;7.70;3.75;;;15.00;99.90;;;-141.84;53.31;20395.13;5090601;28;20231;-63
2022/10/07 09:47:52;;;;;;;5.30;3.10;;;15.00;99.90;;;-141.84;53.65;20380.91;5090395;28;20231;-65
2022/10/07 09:50:37;;;;;;;9.98;3.83;;;15.10;99.90;;;-141.84;52.92;20435.78;5100883;28;20225;-63
2022/10/07 09:53:17;;;;;;;5.97;3.50;;;15.20;99.90;;;-141.84;53.11;20452.06;5110850;28;20183;-64
2022/10/07 09:55:46;;;;;;;9.55;3.67;;;15.30;99.90;;;-141.84;53.14;20452.06;5110714;28;20680;-64
2022/10/07 09:58:24;;;;;;;7.50;3.85;;;15.40;99.90;;;-141.84;52.29;20468.31;5110594;28;20215;-65
2022/10/07 10:00:55;;;;;;;7.85;3.60;;;15.50;99.90;;;-141.84;52.28;20480.50;5104880;28;20227;-65
2022/10/07 10:03:30;;;;;;;6.82;3.58;;;15.50;99.90;;;-141.84;52.66;20456.13;5090198;28;20224;-64
2022/10/07 10:06:04;;;;;;;7.40;3.50;;;15.50;99.90;;;-141.84;52.18;20511.00;5090034;28;20318;-63
2022/10/07 10:08:36;;;;;;;5.88;3.65;;;15.60;99.90;;;-141.84;52.65;20508.97;5090260;28;20219;-62
2022/10/07 10:11:24;;;;;;;6.97;3.38;;;15.70;99.90;;;-141.84;52.20;20494.75;5101306;28;20248;-62
2022/10/07 10:13:52;;;;;;;5.95;3.20;;;15.80;99.90;;;-141.84;51.66;20561.81;5110066;28;20206;-63
2022/10/07 10:16:34;;;;;;;6.28;3.40;;;15.90;99.90;;;-141.84;50.91;20586.22;5109997;28;20227;-64
2022/10/07 10:19:08;;;;;;;6.53;3.45;;;16.00;99.90;;;-141.84;50.96;20632.97;5109829;28;20346;-65
2022/10/07 10:21:41;;;;;;;5.65;2.92;;;16.00;99.90;;;-141.84;50.86;20612.63;5110000;28;20223;-63
2022/10/07 10:24:15;;;;;;;4.53;2.97;;;16.10;99.90;;;-141.84;50.12;20624.84;5110123;28;20319;-67
2022/10/07 10:27:03;;;;;;;7.10;3.35;;;16.20;99.90;;;-141.84;50.91;20594.34;5110199;28;20253;-63
2022/10/07 10:29:49;;;;;;;7.30;2.80;;;16.30;99.90;;;-141.84;50.47;20641.09;5110098;28;20253;-63
2022/10/07 10:33:03;;;;;;;5.22;2.60;;;16.30;99.90;;;-141.84;50.39;20643.13;5110914;28;20219;-62
2022/10/07 10:35:37;;;;;;;3.70;2.47;;;16.40;99.90;;;-141.84;48.69;20700.03;5114146;27;20272;-64
2022/10/07 10:38:38;;;;;;;3.88;2.50;;;16.40;99.90;;;-141.84;49.51;20689.88;5114201;28;20190;-62
2022/10/07 10:41:23;;;;;;;6.68;3.10;;;16.50;99.90;;;-141.84;49.67;20716.31;5113967;28;20252;-63